Latest Weather Observations for Thredbo Top Station

IDN60801

Issued at 11:02 am EST Thursday 27 April 2017 (issued every 30 minutes, with the page automatically refreshed every 10 minutes)

About weather observations | Map of weather stations | Latest weather observations for NSW | Other Formats
Station Details ID: 071032 Name: THREDBO AWS Lat: -36.49 Lon: 148.29 Height: 1957.0 m
Data from the previous 72 hours. | See also: Recent months at Thredbo Top Station
Date/Time
EST
Temp
°C
App
Temp
°C
Dew
Point
°C
Rel
Hum
%
Delta-T
°C
Wind Press
QNH
hPa
Press
MSL
hPa
Rain since
9am
mm
Dir  Spd
km/h
Gust
km/h
Spd
kts
Gust
kts
27/11:00am -2.3 - - - - S 17 22 9 12 1017.9 1014.4 0.2
27/10:30am -2.6 - - - - S 13 28 7 15 1017.7 1014.1 0.2
27/10:00am -2.9 - - - - S 20 37 11 20 1017.1 1013.5 0.2
27/09:32am -3.0 - - - - S 28 48 15 26 1016.1 1012.5 0.2
27/09:30am -3.0 - - - - S 26 41 14 22 1016.4 1012.7 0.2
27/09:00am -3.4 - - - - S 30 46 16 25 1016.0 1012.4 12.6
27/08:45am -3.5 - - - - S 32 52 17 28 1015.6 1012.0 12.6
27/08:30am -3.6 - - - - S 35 48 19 26 1015.6 1012.0 12.6
27/08:13am -3.5 - - - - S 28 46 15 25 1015.3 1011.6 12.6
27/08:00am -3.6 - - - - S 28 39 15 21 1015.0 1011.4 12.6
27/07:32am -3.8 - - - - S 30 48 16 26 1014.7 1011.0 12.6
27/07:30am -3.8 - - - - S 32 48 17 26 1014.5 1010.9 12.6
27/07:18am -4.2 - - - - S 28 46 15 25 - - 12.6
27/07:00am -4.6 - - - - S 20 33 11 18 - - 12.6
27/06:30am -4.8 - - - - S 28 37 15 20 - - 12.6
27/06:00am -4.8 - - - - S 26 41 14 22 - - 12.6
27/05:30am -4.5 - - - - S 30 41 16 22 - - 12.6
27/05:00am -4.7 - - - - S 28 43 15 23 - - 12.6
27/04:30am -5.0 - - - - S 26 35 14 19 - - 12.6
27/04:00am -4.9 - - - - SSW 28 37 15 20 - - 12.6
27/03:30am -4.8 - - - - S 22 30 12 16 - - 12.6
27/03:00am -5.0 - - - - SSW 22 35 12 19 - - 12.6
27/02:30am -5.5 - - - - SSW 17 24 9 13 - - 12.6
27/02:00am -5.4 - - - - SSW 17 24 9 13 - - 12.6
27/01:30am -5.4 - - - - S 19 26 10 14 - - 12.6
27/01:00am -5.5 - - - - SSW 20 30 11 16 - - 12.6
27/12:30am -5.8 - - - - SSW 15 24 8 13 - - 12.6
27/12:00am -5.5 - - - - SW 19 26 10 14 - - 12.6
 
Date/Time
EST
Temp
°C
App
Temp
°C
Dew
Point
°C
Rel
Hum
%
Delta-T
°C
Wind Press
QNH
hPa
Press
MSL
hPa
Rain since
9am
mm
Dir  Spd
km/h
Gust
km/h
Spd
kts
Gust
kts
26/11:30pm -5.4 - - - - SW 22 32 12 17 - - 12.6
26/11:00pm -6.0 - - - - WSW 20 26 11 14 - - 12.6
26/10:30pm -5.5 - - - - SW 24 33 13 18 - - 12.6
26/10:00pm -5.4 - - - - SW 24 35 13 19 - - 12.6
26/09:30pm -4.9 - - - - SW 24 32 13 17 - - 12.6
26/09:00pm -4.5 - - - - SSW 30 39 16 21 - - 12.6
26/08:30pm -4.0 - - - - SW 26 32 14 17 - - 12.6
26/08:00pm -3.5 - - - - SSW 26 39 14 21 - - 12.6
26/07:30pm -3.0 - - - - SSW 20 30 11 16 - - 12.6
26/07:00pm -2.9 - - - - S 17 24 9 13 - - 12.6
26/06:30pm -3.0 - - - - S 24 33 13 18 - - 12.6
26/06:00pm -2.9 - - - - SSW 28 43 15 23 - - 12.6
26/05:30pm -2.6 - - - - S 26 37 14 20 - - 12.6
26/05:00pm -1.9 - - - - S 28 39 15 21 - - 12.4
26/04:30pm -1.4 - - - - S 24 37 13 20 - - 11.8
26/04:00pm -0.9 - - - - S 24 37 13 20 - - 11.8
26/03:30pm -1.1 - - - - S 24 33 13 18 - - 11.6
26/03:00pm -0.6 - - - - S 20 26 11 14 - - 11.6
26/02:30pm -0.6 - - - - S 28 37 15 20 - - 11.2
26/02:00pm -0.4 - - - - S 19 30 10 16 - - 11.2
26/01:30pm -0.6 - - - - S 22 33 12 18 - - 11.2
26/01:00pm -0.6 - - - - S 22 30 12 16 - - 11.0
26/12:30pm -0.6 - - - - SSW 19 28 10 15 - - 11.0
26/12:00pm -0.8 - - - - SSW 26 37 14 20 - - 11.0
26/11:30am -0.4 - - - - SW 24 32 13 17 - - 7.6
26/11:00am 0.3 - - - - W 17 22 9 12 - - 4.4
26/10:30am 0.3 - - - - W 24 33 13 18 - - 3.4
26/10:11am 0.7 - - - - NW 28 41 15 22 - - 2.2
26/10:00am 0.8 - - - - NW 30 46 16 25 - - 1.4
26/09:30am 0.8 - - - - NW 20 33 11 18 - - 0.6
26/09:12am 1.0 - - - - NW 28 46 15 25 - - 0.0
26/09:00am 0.8 - - - - NW 35 65 19 35 - - 54.8
26/08:30am 1.1 - - - - NW 54 78 29 42 - - 54.4
26/08:00am 1.3 - - - - NW 59 83 32 45 - - 53.8
26/07:30am 1.1 - - - - NW 63 87 34 47 - - 53.8
26/07:00am 1.1 - - - - NW 63 93 34 50 - - 53.8
26/06:30am 1.1 - - - - NW 69 96 37 52 - - 53.8
26/06:00am 1.2 - - - - NW 63 91 34 49 - - 53.8
26/05:30am 1.3 - - - - NW 59 80 32 43 - - 53.8
26/05:00am 1.6 - - - - NW 63 85 34 46 - - 53.8
26/04:30am 1.6 - - - - NW 57 83 31 45 - - 52.0
26/04:00am 2.5 - - - - NW 52 80 28 43 - - 48.0
26/03:30am 2.4 - - - - NW 57 80 31 43 - - 47.8
26/03:00am 2.3 - - - - NW 56 78 30 42 - - 47.8
26/02:30am 2.6 - - - - NW 54 82 29 44 - - 47.8
26/02:00am 3.0 - - - - NW 50 74 27 40 - - 47.8
26/01:30am 3.0 - - - - NW 50 76 27 41 - - 47.8
26/01:03am 3.0 - - - - NW 54 72 29 39 - - 47.4
26/01:00am 3.1 - - - - NW 57 74 31 40 - - 47.4
26/12:30am 3.4 - - - - NW 50 72 27 39 - - 46.8
26/12:16am 3.4 - - - - WNW 46 72 25 39 - - 46.6
26/12:11am 3.4 - - - - NW 48 72 26 39 - - 46.6
26/12:00am 3.5 - - - - NW 52 80 28 43 - - 46.6
 
Date/Time
EST
Temp
°C
App
Temp
°C
Dew
Point
°C
Rel
Hum
%
Delta-T
°C
Wind Press
QNH
hPa
Press
MSL
hPa
Rain since
9am
mm
Dir  Spd
km/h
Gust
km/h
Spd
kts
Gust
kts
25/11:59pm 3.5 - - - - NW 52 80 28 43 - - 46.6
25/11:30pm 3.8 - - - - WNW 39 67 21 36 - - 46.6
25/11:00pm 3.8 - - - - NW 44 67 24 36 - - 46.6
25/10:30pm 3.9 - - - - WNW 37 61 20 33 - - 46.6
25/10:00pm 4.0 - - - - WNW 35 56 19 30 - - 46.6
25/09:34pm 4.2 - - - - WNW 28 48 15 26 - - 46.6
25/09:30pm 4.3 - - - - WNW 22 43 12 23 - - 46.6
25/09:00pm 4.2 - - - - WNW 26 44 14 24 - - 46.4
25/08:49pm 4.2 - - - - WNW 28 54 15 29 - - 46.4
25/08:30pm 4.3 - - - - WNW 28 52 15 28 - - 46.4
25/08:04pm 4.7 - - - - WNW 28 50 15 27 - - 44.8
25/08:00pm 4.8 - - - - NW 24 48 13 26 - - 43.8
25/07:40pm 4.8 - - - - WNW 28 50 15 27 - - 40.4
25/07:30pm 4.8 - - - - WNW 24 39 13 21 - - 40.0
25/07:00pm 4.9 - - - - WNW 30 52 16 28 - - 40.0
25/06:49pm 5.0 - - - - WNW 28 46 15 25 - - 40.0
25/06:30pm 5.1 - - - - WNW 26 41 14 22 - - 40.0
25/06:03pm 5.1 - - - - NW 35 54 19 29 - - 40.0
25/06:00pm 5.2 - - - - NW 37 54 20 29 - - 40.0
25/05:31pm 5.4 - - - - WNW 28 54 15 29 - - 40.0
25/05:30pm 5.4 - - - - WNW 26 54 14 29 - - 40.0
25/05:00pm 5.3 - - - - WNW 35 61 19 33 - - 39.8
25/04:30pm 5.5 - - - - WNW 37 65 20 35 - - 39.8
25/04:00pm 5.9 - - - - NW 35 54 19 29 - - 38.8
25/03:33pm 6.1 - - - - WNW 28 46 15 25 - - 36.8
25/03:30pm 6.1 - - - - WNW 30 44 16 24 - - 36.4
25/03:00pm 5.7 - - - - NW 44 63 24 34 - - 33.4
25/02:40pm 5.7 - - - - WNW 37 56 20 30 - - 33.2
25/02:30pm 5.9 - - - - NW 35 48 19 26 - - 33.2
25/02:00pm 5.5 - - - - WNW 41 65 22 35 - - 32.6
25/01:30pm 6.0 - - - - WNW 41 65 22 35 - - 31.6
25/01:00pm 6.2 - - - - WNW 35 54 19 29 - - 28.4
25/12:54pm 6.5 - - - - WNW 35 52 19 28 - - 28.0
25/12:48pm 6.3 - - - - NW 41 54 22 29 - - 27.0
25/12:34pm 6.9 - - - - NW 44 63 24 34 - - 25.8
25/12:30pm 7.0 - - - - NNW 48 63 26 34 - - 25.4
25/12:00pm 7.0 - - - - NNW 50 69 27 37 - - 21.2
25/11:31am 7.0 - - - - NNW 46 67 25 36 - - 16.4
25/11:30am 7.0 - - - - NNW 46 63 25 34 - - 16.2
25/11:01am 6.6 - - - - NNW 52 72 28 39 - - 12.2
25/11:00am 6.5 - - - - NNW 50 67 27 36 - - 12.2
25/10:53am 6.7 - - - - NNW 48 67 26 36 - - 11.6
25/10:50am 6.6 - - - - NNW 50 67 27 36 - - 11.4
25/10:30am 6.3 - - - - NNW 65 85 35 46 - - 9.2
25/10:04am 6.9 - - - - NNW 63 82 34 44 - - 5.6
25/10:00am 7.0 - - - - NNW 63 80 34 43 - - 5.2
25/09:51am 6.8 - - - - NNW 61 80 33 43 - - 4.2
25/09:30am 6.8 - - - - NW 52 69 28 37 - - 2.2
25/09:03am 6.3 - - - - NW 65 100 35 54 - - 0.2
25/09:02am 6.3 - - - - NW 67 100 36 54 - - 0.2
25/09:00am 6.1 - - - - NNW 72 100 39 54 - - 28.4
25/08:30am 6.8 - - - - NW 80 102 43 55 - - 26.2
25/08:00am 6.8 - - - - NNW 69 96 37 52 - - 24.2
25/07:30am 7.2 - - - - NNW 67 95 36 51 - - 20.8
25/07:00am 7.0 - - - - NNW 63 91 34 49 - - 17.6
25/06:30am 7.1 - - - - NNW 57 82 31 44 - - 14.6
25/06:00am 7.2 - - - - NNW 56 78 30 42 - - 10.0
25/05:43am 6.9 - - - - NNW 59 78 32 42 - - 9.4
25/05:30am 7.2 - - - - NNW 61 76 33 41 - - 8.6
25/05:00am 7.1 - - - - NNW 61 87 33 47 - - 6.0
25/04:30am 7.1 - - - - NNW 52 78 28 42 - - 4.0
25/04:00am 6.7 - - - - NNW 52 74 28 40 - - 2.0
25/03:34am 6.4 - - - - NNW 43 61 23 33 1014.7 1011.0 1.0
25/03:30am 6.4 - - - - NNW 43 59 23 32 1014.9 1011.2 0.8
25/03:10am 6.4 - - - - NNW 37 57 20 31 1015.3 1011.6 0.2
25/03:00am 6.4 - - - - NNW 35 50 19 27 1015.6 1012.0 0.0
25/02:37am 6.3 - - - - NNW 39 59 21 32 1016.2 1012.6 0.0
25/02:30am 6.3 - - - - NNW 41 54 22 29 1016.2 1012.6 0.0
25/02:02am 6.3 - - - - NNW 37 61 20 33 1017.0 1013.4 0.0
25/02:00am 6.3 - - - - NNW 35 52 19 28 1017.0 1013.4 0.0
25/01:38am 6.4 - - - - NNW 46 67 25 36 1016.8 1013.3 0.0
25/01:30am 6.5 - - - - NNW 46 61 25 33 1017.2 1013.6 0.0
25/01:14am 6.4 - - - - NNW 50 69 27 37 1016.8 1013.3 0.0
25/01:00am 6.3 - - - - NNW 46 63 25 34 1017.2 1013.6 0.0
25/12:30am 6.5 - - - - NNW 44 63 24 34 1017.9 1014.4 0.0
25/12:00am 6.6 - - - - NNW 44 63 24 34 1018.7 1015.1 0.0
 
Date/Time
EST
Temp
°C
App
Temp
°C
Dew
Point
°C
Rel
Hum
%
Delta-T
°C
Wind Press
QNH
hPa
Press
MSL
hPa
Rain since
9am
mm
Dir  Spd
km/h
Gust
km/h
Spd
kts
Gust
kts
24/11:31pm 6.6 - - - - NNW 43 63 23 34 1019.0 1015.5 0.0
24/11:30pm 6.7 - - - - NNW 43 59 23 32 1019.1 1015.7 0.0
24/11:03pm 7.1 - - - - NNW 44 65 24 35 1019.4 1015.9 0.0
24/11:00pm 7.2 - - - - NNW 44 61 24 33 1019.5 1016.0 0.0
24/10:30pm 7.1 - - - - NNW 50 67 27 36 1019.6 1016.2 0.0
24/10:00pm 7.3 - - - - NNW 50 65 27 35 1019.6 1016.2 0.0
24/09:42pm 7.2 - - - - NNW 41 67 22 36 1020.4 1016.9 0.0
24/09:30pm 6.9 - - - - NNW 43 57 23 31 1020.5 1017.0 0.0
24/09:00pm 7.0 - - - - NNW 43 56 23 30 1021.0 1017.5 0.0
24/08:30pm 6.8 - - - - NNW 37 52 20 28 1021.4 1018.1 0.0
24/08:00pm 6.8 - - - - NNW 35 46 19 25 1021.4 1018.1 0.0
24/07:30pm 6.7 - - - - NNW 33 44 18 24 1021.8 1018.4 0.0
24/07:00pm 6.2 - - - - NNW 32 46 17 25 1021.7 1018.3 0.0
24/06:30pm 6.4 - - - - NNW 28 39 15 21 1021.6 1018.2 0.0
24/06:00pm 6.1 - - - - NNW 24 32 13 17 1021.7 1018.3 0.0
24/05:30pm 6.1 - - - - NNW 26 32 14 17 1021.9 1018.6 0.0
24/05:00pm 6.5 - - - - NNW 20 28 11 15 1022.4 1019.1 0.0
24/04:30pm 6.9 - - - - NNW 22 28 12 15 1022.5 1019.2 0.0
24/04:00pm 7.3 - - - - NNW 22 32 12 17 1022.4 1019.1 0.0
24/03:30pm 8.4 - - - - NNW 28 43 15 23 1022.4 1019.1 0.0
24/03:00pm 8.5 - - - - NNW 28 41 15 22 1022.3 1018.9 0.0
24/02:30pm 8.6 - - - - NNW 28 41 15 22 1022.5 1019.2 0.0
24/02:00pm 9.8 - - - - NNW 24 35 13 19 1023.0 1019.7 0.0
24/01:30pm 8.9 - - - - NW 19 28 10 15 1023.4 1020.1 0.0
24/01:00pm 8.8 - - - - NW 22 33 12 18 1023.6 1020.3 0.0
24/12:30pm 9.4 - - - - NW 19 28 10 15 1024.1 1020.8 0.0
24/12:00pm 8.8 - - - - WNW 19 30 10 16 1024.8 1021.6 0.0
24/11:30am 8.4 - - - - NW 22 33 12 18 1025.2 1022.0 0.0

Other Formats:

Comma delimited format used in spreadsheet applications
http://www.bom.gov.au/fwo/IDN60801/IDN60801.95909.axf

JavaScript Object Notation format (JSON) in row-major order
http://www.bom.gov.au/fwo/IDN60801/IDN60801.95909.json